Time;durP1;ratioP1;P1;durP2;ratioP2;P2;SDS_P1;SDS_P2;PMS_P1;PMS_P2;Temp;Humidity;BMP_temperature;BMP_pressure;BME280_temperature;BME280_humidity;BME280_pressure;Samples;Min_cycle;Max_cycle;Signal;HPM_P1;HPM_P2
2023/06/05 00:01:12;;;;;;;;;;;;;;;9.34;90.10;102331.00;4980558;28;20018;-80
2023/06/05 00:03:43;;;;;;;;;;;;;;;9.33;90.82;102335.53;5018892;28;19956;-79
2023/06/05 00:06:09;;;;;;;;;;;;;;;9.38;90.64;102335.69;4982168;28;19922;-77
2023/06/05 00:08:35;;;;;;;;;;;;;;;9.36;90.81;102329.75;4998517;28;19920;-79
2023/06/05 00:11:00;;;;;;;;;;;;;;;9.31;90.55;102326.91;4978735;28;19927;-77
2023/06/05 00:13:26;;;;;;;;;;;;;;;9.26;91.06;102340.13;4991470;28;19921;-78
2023/06/05 00:15:52;;;;;;;;;;;;;;;9.25;90.94;102327.78;4987510;28;20130;-79
2023/06/05 00:18:18;;;;;;;;;;;;;;;9.25;91.73;102338.50;4981018;28;19929;-78
2023/06/05 00:20:44;;;;;;;;;;;;;;;9.20;91.84;102333.81;4995351;28;19921;-77
2023/06/05 00:23:11;;;;;;;;;;;;;;;9.18;91.74;102327.06;4996545;28;19952;-76
2023/06/05 00:25:36;;;;;;;;;;;;;;;9.16;92.13;102334.47;4991147;28;20333;-78
2023/06/05 00:28:02;;;;;;;;;;;;;;;9.13;92.19;102341.06;4986907;28;19925;-78
2023/06/05 00:30:30;;;;;;;;;;;;;;;9.14;91.88;102341.88;4987399;28;19945;-78
2023/06/05 00:32:57;;;;;;;;;;;;;;;9.22;91.23;102338.94;5005238;28;19927;-79
2023/06/05 00:35:22;;;;;;;;;;;;;;;9.15;91.28;102338.19;4986280;28;19992;-76
2023/06/05 00:37:48;;;;;;;;;;;;;;;9.17;91.09;102349.47;4993297;28;19918;-77
2023/06/05 00:40:14;;;;;;;;;;;;;;;9.12;91.27;102342.13;5003682;28;20027;-78
2023/06/05 00:42:39;;;;;;;;;;;;;;;9.05;91.69;102338.69;4980324;28;20384;-78
2023/06/05 00:45:06;;;;;;;;;;;;;;;9.03;91.53;102340.78;4994166;28;20412;-77
2023/06/05 00:47:33;;;;;;;;;;;;;;;9.20;91.16;102341.00;5009799;28;19921;-78
2023/06/05 00:49:59;;;;;;;;;;;;;;;9.27;91.13;102339.06;4990845;28;19972;-76
2023/06/05 00:52:26;;;;;;;;;;;;;;;9.19;90.90;102334.03;5007693;28;19956;-78
2023/06/05 00:54:51;;;;;;;;;;;;;;;9.18;90.83;102337.75;5011442;28;19917;-79
2023/06/05 00:57:17;;;;;;;;;;;;;;;9.23;90.89;102335.22;4980718;28;19924;-78
2023/06/05 00:59:44;;;;;;;;;;;;;;;9.23;90.78;102328.03;4986628;28;19927;-80
2023/06/05 01:02:12;;;;;;;;;;;;;;;9.10;90.91;102335.38;4997746;28;20337;-78
2023/06/05 01:04:40;;;;;;;;;;;;;;;9.12;90.81;102334.09;4984822;28;20297;-76
2023/06/05 01:07:07;;;;;;;;;;;;;;;8.97;91.10;102337.13;4983557;28;20382;-78
2023/06/05 01:09:33;;;;;;;;;;;;;;;8.89;90.91;102329.38;4992105;28;19932;-77
2023/06/05 01:12:19;;;;;;;;;;;;;;;8.89;90.71;102329.38;5002197;28;19925;-79
2023/06/05 01:14:48;;;;;;;;;;;;;;;8.78;90.66;102324.75;4997391;28;20279;-77
2023/06/05 01:17:14;;;;;;;;;;;;;;;8.69;90.88;102331.41;4984001;28;19921;-79
2023/06/05 01:19:40;;;;;;;;;;;;;;;8.66;90.96;102323.81;4997325;28;19916;-78
2023/06/05 01:22:05;;;;;;;;;;;;;;;8.54;91.42;102318.38;4996147;28;19928;-78
2023/06/05 01:24:35;;;;;;;;;;;;;;;8.46;91.62;102314.09;4993495;28;19932;-77
2023/06/05 01:27:02;;;;;;;;;;;;;;;8.38;91.85;102308.22;5015551;28;19921;-78
2023/06/05 01:29:44;;;;;;;;;;;;;;;8.36;91.65;102319.13;5008605;28;19921;-79
2023/06/05 01:32:15;;;;;;;;;;;;;;;8.36;92.49;102312.97;4978985;28;19922;-78
2023/06/05 01:34:43;;;;;;;;;;;;;;;8.42;92.24;102318.25;4965199;28;19979;-77
2023/06/05 01:37:12;;;;;;;;;;;;;;;8.32;92.21;102309.06;4999067;28;19917;-76
2023/06/05 01:39:39;;;;;;;;;;;;;;;8.31;92.79;102310.09;4966614;28;19932;-77
2023/06/05 01:42:06;;;;;;;;;;;;;;;8.31;92.40;102315.44;4997442;28;19925;-77
2023/06/05 01:44:32;;;;;;;;;;;;;;;8.24;92.51;102310.13;4975467;28;21021;-78
2023/06/05 01:46:57;;;;;;;;;;;;;;;8.28;92.72;102310.53;4995629;28;19928;-76
2023/06/05 01:49:23;;;;;;;;;;;;;;;8.20;92.64;102308.94;4992523;28;19924;-77
2023/06/05 01:51:49;;;;;;;;;;;;;;;8.14;92.98;102299.13;4994092;28;19925;-76
2023/06/05 01:54:15;;;;;;;;;;;;;;;8.07;92.81;102303.69;4998587;28;19922;-77
2023/06/05 01:56:43;;;;;;;;;;;;;;;8.02;92.65;102300.84;4988149;28;19925;-76
2023/06/05 01:59:09;;;;;;;;;;;;;;;8.03;92.60;102297.13;5002099;28;19921;-78
2023/06/05 02:01:34;;;;;;;;;;;;;;;8.08;92.95;102303.47;4982763;28;19971;-77
2023/06/05 02:04:04;;;;;;;;;;;;;;;8.04;93.02;102301.44;4998336;28;20019;-77
2023/06/05 02:06:42;;;;;;;;;;;;;;;8.03;92.57;102294.47;5009641;28;19932;-77
2023/06/05 02:09:09;;;;;;;;;;;;;;;7.96;93.14;102294.50;4983433;28;19917;-76
2023/06/05 02:11:37;;;;;;;;;;;;;;;8.10;92.84;102292.56;4979132;28;20622;-78
2023/06/05 02:14:12;;;;;;;;;;;;;;;8.40;92.57;102298.97;4991263;28;19975;-77
2023/06/05 02:16:39;;;;;;;;;;;;;;;8.31;92.12;102292.22;4996232;28;19948;-77
2023/06/05 02:19:06;;;;;;;;;;;;;;;8.26;92.37;102285.91;4996428;28;19927;-78
2023/06/05 02:21:35;;;;;;;;;;;;;;;8.24;92.36;102285.31;5000516;28;20060;-76
2023/06/05 02:24:01;;;;;;;;;;;;;;;8.44;92.17;102286.81;5002490;28;19924;-78
2023/06/05 02:26:27;;;;;;;;;;;;;;;8.39;91.68;102289.31;4987071;28;19983;-77
2023/06/05 02:28:55;;;;;;;;;;;;;;;8.29;91.71;102283.63;4984808;28;19964;-78
2023/06/05 02:31:23;;;;;;;;;;;;;;;8.17;92.07;102285.34;4995667;28;19929;-77
2023/06/05 02:33:53;;;;;;;;;;;;;;;8.10;91.66;102281.91;4971815;28;19917;-76
2023/06/05 02:36:19;;;;;;;;;;;;;;;7.98;92.66;102283.63;4990377;28;20394;-77
2023/06/05 02:38:46;;;;;;;;;;;;;;;7.96;92.54;102275.03;4983006;28;19921;-76
2023/06/05 02:41:12;;;;;;;;;;;;;;;7.93;92.45;102286.94;4983660;28;19952;-77
2023/06/05 02:43:37;;;;;;;;;;;;;;;7.92;92.68;102280.78;4977486;28;19956;-76
2023/06/05 02:46:03;;;;;;;;;;;;;;;8.04;92.51;102278.25;4975214;28;19922;-78
2023/06/05 02:48:29;;;;;;;;;;;;;;;8.01;92.68;102276.00;4984096;28;19940;-78
2023/06/05 02:50:55;;;;;;;;;;;;;;;8.04;92.60;102277.41;4989268;28;20396;-79
2023/06/05 02:53:21;;;;;;;;;;;;;;;8.07;92.86;102287.69;4991823;28;19991;-77
2023/06/05 02:55:47;;;;;;;;;;;;;;;8.21;92.78;102279.38;4980375;28;19929;-76
2023/06/05 02:58:15;;;;;;;;;;;;;;;8.14;92.65;102283.13;5018657;28;19921;-78
2023/06/05 03:00:46;;;;;;;;;;;;;;;8.30;92.29;102282.59;4987329;28;20573;-78
2023/06/05 03:03:16;;;;;;;;;;;;;;;8.21;92.07;102279.38;4994328;28;20098;-78
2023/06/05 03:05:44;;;;;;;;;;;;;;;8.09;92.38;102274.94;4981797;28;20585;-77
2023/06/05 03:08:13;;;;;;;;;;;;;;;7.97;92.41;102274.81;4998119;28;19925;-77
2023/06/05 03:10:39;;;;;;;;;;;;;;;7.94;92.18;102268.06;4997162;28;19957;-79
2023/06/05 03:13:06;;;;;;;;;;;;;;;8.00;92.65;102268.22;5000953;28;19987;-79
2023/06/05 03:15:34;;;;;;;;;;;;;;;8.10;92.11;102268.56;4994695;28;19948;-78
2023/06/05 03:18:00;;;;;;;;;;;;;;;8.19;91.97;102269.94;5009930;28;19921;-77
2023/06/05 03:20:28;;;;;;;;;;;;;;;8.16;91.90;102270.38;4982208;28;20369;-77
2023/06/05 03:22:56;;;;;;;;;;;;;;;8.17;92.20;102267.47;5005237;28;20297;-75
2023/06/05 03:25:22;;;;;;;;;;;;;;;8.12;92.16;102269.16;4978752;28;19925;-78
2023/06/05 03:27:52;;;;;;;;;;;;;;;8.09;92.65;102269.59;4981054;28;20530;-80
2023/06/05 03:30:20;;;;;;;;;;;;;;;8.24;93.18;102267.44;4991208;28;19921;-77
2023/06/05 03:32:50;;;;;;;;;;;;;;;8.32;92.52;102267.16;4995650;28;20332;-77
2023/06/05 03:35:18;;;;;;;;;;;;;;;8.36;92.23;102265.72;5006663;28;20371;-77
2023/06/05 03:37:44;;;;;;;;;;;;;;;8.45;91.83;102260.94;4986999;28;19922;-77
2023/06/05 03:40:11;;;;;;;;;;;;;;;8.35;92.30;102261.44;4992822;28;19961;-78
2023/06/05 03:42:38;;;;;;;;;;;;;;;8.46;91.89;102260.72;4990071;28;19999;-79
2023/06/05 03:45:04;;;;;;;;;;;;;;;8.48;91.96;102261.31;5037513;23;19925;-76
2023/06/05 03:47:30;;;;;;;;;;;;;;;8.42;92.24;102259.53;5022376;28;19921;-75
2023/06/05 03:49:57;;;;;;;;;;;;;;;8.50;92.09;102262.97;4997421;28;19921;-77
2023/06/05 03:52:23;;;;;;;;;;;;;;;8.52;92.29;102258.22;5017125;28;19947;-77
2023/06/05 03:54:55;;;;;;;;;;;;;;;8.55;92.42;102258.59;4994937;28;19918;-76
2023/06/05 03:57:22;;;;;;;;;;;;;;;8.65;91.58;102252.75;5011292;28;19921;-79
2023/06/05 03:59:48;;;;;;;;;;;;;;;8.68;91.88;102257.66;4999095;28;20420;-77
2023/06/05 04:02:13;;;;;;;;;;;;;;;8.72;91.67;102258.84;5002795;28;19921;-77
2023/06/05 04:04:39;;;;;;;;;;;;;;;8.77;92.06;102260.88;5025972;28;19936;-77
2023/06/05 04:07:05;;;;;;;;;;;;;;;8.92;91.50;102264.81;5013705;28;20494;-76
2023/06/05 04:09:31;;;;;;;;;;;;;;;8.93;91.27;102271.78;4979535;28;19928;-76
2023/06/05 04:11:59;;;;;;;;;;;;;;;9.08;91.05;102262.59;4986047;28;19922;-76
2023/06/05 04:14:27;;;;;;;;;;;;;;;9.12;91.04;102272.63;4979464;28;19918;-76
2023/06/05 04:16:53;;;;;;;;;;;;;;;9.14;91.29;102272.38;4986692;28;19927;-77
2023/06/05 04:19:21;;;;;;;;;;;;;;;9.16;90.89;102281.03;4990946;28;19920;-76
2023/06/05 04:21:51;;;;;;;;;;;;;;;9.33;90.54;102270.53;4996190;28;19921;-76
2023/06/05 04:24:17;;;;;;;;;;;;;;;9.39;90.04;102275.00;4977638;28;20731;-76
2023/06/05 04:26:42;;;;;;;;;;;;;;;9.51;89.68;102278.56;5008644;28;19999;-76
2023/06/05 04:29:18;;;;;;;;;;;;;;;9.55;89.36;102275.22;4993460;28;19937;-75
2023/06/05 04:31:45;;;;;;;;;;;;;;;9.59;89.58;102280.91;4989909;28;19921;-76
2023/06/05 04:34:11;;;;;;;;;;;;;;;9.70;89.49;102276.66;4991723;28;20017;-76
2023/06/05 04:36:37;;;;;;;;;;;;;;;9.83;89.39;102274.63;4993561;28;19925;-77
2023/06/05 04:39:13;;;;;;;;;;;;;;;9.83;88.40;102274.63;4981412;28;19921;-75
2023/06/05 04:41:44;;;;;;;;;;;;;;;9.90;88.80;102266.50;4994311;28;20337;-76
2023/06/05 04:44:12;;;;;;;;;;;;;;;10.00;88.53;102266.75;5009337;28;20000;-76
2023/06/05 04:46:39;;;;;;;;;;;;;;;10.14;88.32;102267.38;4995235;28;21199;-76
2023/06/05 04:49:07;;;;;;;;;;;;;;;10.25;87.59;102268.50;5007847;28;19921;-76
2023/06/05 04:51:44;;;;;;;;;;;;;;;10.40;86.06;102266.19;5029937;28;19945;-75
2023/06/05 04:54:11;;;;;;;;;;;;;;;10.51;86.09;102270.75;5012893;28;20271;-78
2023/06/05 04:56:39;;;;;;;;;;;;;;;10.61;85.15;102267.47;4981810;28;20350;-75
2023/06/05 04:59:05;;;;;;;;;;;;;;;10.61;85.85;102268.28;4979643;28;19921;-75
2023/06/05 05:01:31;;;;;;;;;;;;;;;10.69;85.70;102271.69;4994449;28;19923;-75
2023/06/05 05:03:57;;;;;;;;;;;;;;;10.79;86.04;102272.72;5026636;28;19924;-76
2023/06/05 05:06:24;;;;;;;;;;;;;;;10.86;85.09;102264.56;5011440;28;19929;-78
2023/06/05 05:08:50;;;;;;;;;;;;;;;10.92;84.00;102264.44;4998399;28;20456;-77
2023/06/05 05:11:15;;;;;;;;;;;;;;;11.00;84.25;102265.16;5013449;28;19921;-76
2023/06/05 05:13:42;;;;;;;;;;;;;;;11.05;84.06;102263.41;4997956;28;19969;-77
2023/06/05 05:16:07;;;;;;;;;;;;;;;11.07;83.49;102260.47;4994617;28;20063;-78
2023/06/05 05:18:34;;;;;;;;;;;;;;;11.15;83.38;102262.78;4996369;28;20711;-77
2023/06/05 05:21:00;;;;;;;;;;;;;;;11.20;84.09;102258.34;5007028;28;19921;-76
2023/06/05 05:23:25;;;;;;;;;;;;;;;11.47;83.10;102260.50;5025381;28;20448;-76
2023/06/05 05:25:51;;;;;;;;;;;;;;;11.59;81.60;102258.59;4978933;28;19921;-78
2023/06/05 05:28:18;;;;;;;;;;;;;;;11.63;81.41;102264.28;5009122;28;19921;-76
2023/06/05 05:30:43;;;;;;;;;;;;;;;11.82;81.22;102270.31;5028421;28;19920;-75
2023/06/05 05:33:09;;;;;;;;;;;;;;;11.84;81.44;102268.19;5003190;28;19987;-75
2023/06/05 05:35:35;;;;;;;;;;;;;;;11.94;79.86;102271.06;5015610;28;19990;-77
2023/06/05 05:38:01;;;;;;;;;;;;;;;12.13;79.00;102267.13;5007752;28;20482;-76
2023/06/05 05:40:26;;;;;;;;;;;;;;;12.21;78.16;102272.09;4992851;28;19947;-76
2023/06/05 05:42:52;;;;;;;;;;;;;;;12.40;78.34;102271.84;5008150;28;19953;-75
2023/06/05 05:45:17;;;;;;;;;;;;;;;12.66;77.74;102276.53;4992764;28;19925;-76
2023/06/05 05:47:45;;;;;;;;;;;;;;;12.70;77.49;102269.63;5027785;28;20418;-75
2023/06/05 05:50:11;;;;;;;;;;;;;;;12.87;77.13;102271.44;5012736;28;19963;-75
2023/06/05 05:52:38;;;;;;;;;;;;;;;12.89;77.01;102269.34;5011044;28;20608;-75
2023/06/05 05:55:04;;;;;;;;;;;;;;;12.96;76.63;102273.50;4996257;28;20441;-76
2023/06/05 05:57:30;;;;;;;;;;;;;;;13.16;76.25;102270.25;5023434;28;19964;-76
2023/06/05 05:59:55;;;;;;;;;;;;;;;13.22;75.06;102274.69;5015295;28;19960;-75
2023/06/05 06:02:21;;;;;;;;;;;;;;;13.43;75.42;102283.00;4995199;28;19959;-75
2023/06/05 06:04:48;;;;;;;;;;;;;;;13.49;74.59;102279.31;5026025;28;20360;-75
2023/06/05 06:07:14;;;;;;;;;;;;;;;13.44;74.05;102280.03;5008409;28;20406;-75
2023/06/05 06:09:40;;;;;;;;;;;;;;;13.52;73.65;102276.09;4987770;28;19937;-76
2023/06/05 06:12:07;;;;;;;;;;;;;;;13.58;73.35;102281.28;4982635;28;20108;-76
2023/06/05 06:14:33;;;;;;;;;;;;;;;13.76;73.28;102272.06;4996433;28;19921;-76
2023/06/05 06:17:00;;;;;;;;;;;;;;;13.72;73.17;102280.91;5006509;28;19971;-75
2023/06/05 06:19:27;;;;;;;;;;;;;;;14.08;72.65;102276.66;4980331;28;20055;-76
2023/06/05 06:21:53;;;;;;;;;;;;;;;14.22;71.64;102275.16;5008741;28;19921;-76
2023/06/05 06:24:22;;;;;;;;;;;;;;;14.34;71.79;102273.13;5006530;28;20333;-76
2023/06/05 06:26:48;;;;;;;;;;;;;;;14.40;70.49;102274.78;5009751;28;19921;-79
2023/06/05 06:29:23;;;;;;;;;;;;;;;14.53;71.57;102272.75;5011374;28;19921;-76
2023/06/05 06:31:49;;;;;;;;;;;;;;;14.88;69.12;102275.69;5006743;28;20366;-76
2023/06/05 06:34:16;;;;;;;;;;;;;;;15.12;69.13;102275.28;4972015;28;20393;-75
2023/06/05 06:36:43;;;;;;;;;;;;;;;15.24;69.08;102275.84;4996493;28;19928;-77
2023/06/05 06:39:10;;;;;;;;;;;;;;;15.29;68.28;102279.38;4995562;28;19925;-76
2023/06/05 06:41:36;;;;;;;;;;;;;;;15.53;66.51;102279.75;4989286;28;19983;-77
2023/06/05 06:44:02;;;;;;;;;;;;;;;15.50;69.10;102277.56;5010363;28;20275;-76
2023/06/05 06:46:28;;;;;;;;;;;;;;;15.76;67.86;102280.38;4995147;28;19921;-76
2023/06/05 06:48:54;;;;;;;;;;;;;;;15.75;68.66;102276.06;5015504;28;19917;-77
2023/06/05 06:51:21;;;;;;;;;;;;;;;15.86;66.58;102280.41;5027580;28;19925;-76
2023/06/05 06:53:47;;;;;;;;;;;;;;;15.84;68.07;102286.06;4995130;28;21585;-77
2023/06/05 06:56:15;;;;;;;;;;;;;;;16.01;66.69;102276.91;5006139;28;20459;-76
2023/06/05 06:58:41;;;;;;;;;;;;;;;15.97;66.40;102273.94;5028770;28;19997;-75
2023/06/05 07:01:06;;;;;;;;;;;;;;;16.46;65.34;102275.28;4988585;28;19921;-77
2023/06/05 07:03:32;;;;;;;;;;;;;;;16.41;64.55;102273.41;4992354;28;19936;-77
2023/06/05 07:05:57;;;;;;;;;;;;;;;16.65;64.26;102279.88;4994800;28;19921;-74
2023/06/05 07:08:23;;;;;;;;;;;;;;;16.89;63.71;102280.13;4979035;28;20423;-75
2023/06/05 07:10:49;;;;;;;;;;;;;;;16.92;63.86;102286.88;4994089;28;19988;-76
2023/06/05 07:13:15;;;;;;;;;;;;;;;17.38;62.07;102281.31;5013006;28;19921;-76
2023/06/05 07:15:43;;;;;;;;;;;;;;;17.40;61.96;102285.34;4996995;28;20004;-76
2023/06/05 07:18:10;;;;;;;;;;;;;;;17.04;59.87;102276.56;5003026;28;20378;-76
2023/06/05 07:20:36;;;;;;;;;;;;;;;17.66;59.52;102283.31;4990160;28;19924;-76
2023/06/05 07:23:02;;;;;;;;;;;;;;;17.72;58.64;102281.44;4998161;28;19921;-76
2023/06/05 07:25:28;;;;;;;;;;;;;;;17.82;59.28;102283.28;5005813;28;19932;-76
2023/06/05 07:27:53;;;;;;;;;;;;;;;17.83;58.30;102287.59;4970842;28;19917;-76
2023/06/05 07:30:19;;;;;;;;;;;;;;;18.00;57.42;102277.97;4980767;28;19926;-76
2023/06/05 07:32:45;;;;;;;;;;;;;;;17.92;57.77;102275.06;4994323;28;19968;-76
2023/06/05 07:35:10;;;;;;;;;;;;;;;18.42;57.01;102275.75;5013860;28;19921;-76
2023/06/05 07:37:36;;;;;;;;;;;;;;;18.28;56.11;102270.97;5028183;28;19928;-76
2023/06/05 07:40:02;;;;;;;;;;;;;;;18.41;55.96;102276.84;5010314;28;19940;-75
2023/06/05 07:42:28;;;;;;;;;;;;;;;18.11;57.14;102267.88;5008043;28;19924;-75
2023/06/05 07:44:53;;;;;;;;;;;;;;;18.23;57.24;102273.75;4994773;28;20291;-76
2023/06/05 07:47:19;;;;;;;;;;;;;;;18.18;55.41;102272.97;5012863;28;19932;-76
2023/06/05 07:49:55;;;;;;;;;;;;;;;18.48;56.25;102266.47;4997542;28;20079;-76
2023/06/05 07:52:21;;;;;;;;;;;;;;;18.89;54.42;102268.78;5010235;28;20447;-77
2023/06/05 07:54:46;;;;;;;;;;;;;;;18.95;52.17;102271.16;5013562;28;20001;-77
2023/06/05 07:57:13;;;;;;;;;;;;;;;19.03;50.97;102273.25;5025852;28;19948;-78
2023/06/05 07:59:38;;;;;;;;;;;;;;;19.26;51.33;102265.38;5009394;28;19920;-76
2023/06/05 08:02:05;;;;;;;;;;;;;;;19.88;53.49;102272.41;4987626;28;19921;-75
2023/06/05 08:04:30;;;;;;;;;;;;;;;19.97;52.13;102269.00;4994341;28;19925;-75
2023/06/05 08:06:58;;;;;;;;;;;;;;;19.45;51.94;102268.94;5005912;28;20279;-76
2023/06/05 08:09:24;;;;;;;;;;;;;;;19.71;51.33;102269.41;5010355;28;19987;-74
2023/06/05 08:11:50;;;;;;;;;;;;;;;19.51;51.02;102277.78;5010753;28;19929;-77
2023/06/05 08:14:15;;;;;;;;;;;;;;;19.80;51.41;102270.38;4995581;28;19917;-77
2023/06/05 08:16:40;;;;;;;;;;;;;;;19.85;48.14;102262.13;5027819;28;19965;-77
2023/06/05 08:19:06;;;;;;;;;;;;;;;19.72;49.61;102265.59;5020184;28;19983;-76
2023/06/05 08:21:33;;;;;;;;;;;;;;;20.06;51.30;102272.69;4980664;28;19932;-76
2023/06/05 08:23:59;;;;;;;;;;;;;;;20.01;50.96;102267.31;4991200;28;20367;-76
2023/06/05 08:26:25;;;;;;;;;;;;;;;20.17;49.91;102263.25;5009144;28;19952;-76
2023/06/05 08:28:51;;;;;;;;;;;;;;;20.31;49.64;102260.56;5024420;28;19917;-76
2023/06/05 08:31:16;;;;;;;;;;;;;;;20.33;49.85;102264.63;5009842;28;19921;-77
2023/06/05 08:33:43;;;;;;;;;;;;;;;20.53;51.49;102266.22;4995327;28;19921;-75
2023/06/05 08:36:08;;;;;;;;;;;;;;;20.56;48.18;102254.72;5007235;28;20289;-77
2023/06/05 08:38:33;;;;;;;;;;;;;;;20.50;47.74;102255.09;5007944;28;20003;-77
2023/06/05 08:41:05;;;;;;;;;;;;;;;20.78;48.29;102250.47;5027396;28;20039;-77
2023/06/05 08:43:31;;;;;;;;;;;;;;;20.79;47.13;102247.44;4994233;28;20291;-75
2023/06/05 08:45:57;;;;;;;;;;;;;;;21.00;47.00;102247.88;5022408;28;19972;-77
2023/06/05 08:48:24;;;;;;;;;;;;;;;21.40;46.87;102248.13;4981424;28;19921;-77
2023/06/05 08:50:50;;;;;;;;;;;;;;;21.32;47.06;102244.22;4989385;28;20020;-76
2023/06/05 08:53:17;;;;;;;;;;;;;;;21.01;48.17;102249.50;4993176;28;19964;-76
2023/06/05 08:55:46;;;;;;;;;;;;;;;21.57;47.02;102245.56;4987757;28;19943;-76
2023/06/05 08:58:12;;;;;;;;;;;;;;;21.39;47.26;102241.06;4992004;28;19968;-77
2023/06/05 09:00:38;;;;;;;;;;;;;;;21.25;46.35;102236.44;5025047;28;19921;-77
2023/06/05 09:03:05;;;;;;;;;;;;;;;21.65;46.08;102241.31;4993605;28;19921;-78
2023/06/05 09:05:31;;;;;;;;;;;;;;;21.44;47.75;102230.06;4990076;28;19947;-77
2023/06/05 09:07:58;;;;;;;;;;;;;;;21.82;45.22;102236.00;4987868;28;20389;-76
2023/06/05 09:10:27;;;;;;;;;;;;;;;21.88;44.91;102237.50;4988203;28;19921;-76
2023/06/05 09:12:53;;;;;;;;;;;;;;;21.78;47.34;102245.91;5008037;28;19929;-76
2023/06/05 09:15:31;;;;;;;;;;;;;;;21.83;45.34;102234.09;4991296;28;19921;-78
2023/06/05 09:18:07;;;;;;;;;;;;;;;22.34;44.28;102230.88;5009103;28;20421;-76
2023/06/05 09:20:34;;;;;;;;;;;;;;;22.36;43.12;102233.34;5005799;28;19925;-76
2023/06/05 09:23:01;;;;;;;;;;;;;;;21.80;43.02;102233.56;4995084;28;19921;-77
2023/06/05 09:25:43;;;;;;;;;;;;;;;22.22;43.12;102222.50;4984757;28;19925;-76
2023/06/05 09:28:08;;;;;;;;;;;;;;;22.70;41.99;102228.03;4989718;28;19924;-74
2023/06/05 09:30:52;;;;;;;;;;;;;;;23.55;40.60;102228.50;4994114;28;19920;-78
2023/06/05 09:33:19;;;;;;;;;;;;;;;22.99;40.94;102227.47;5014415;28;20421;-76
2023/06/05 09:35:44;;;;;;;;;;;;;;;22.60;42.25;102223.63;5011373;28;19952;-75
2023/06/05 09:38:30;;;;;;;;;;;;;;;23.06;41.45;102227.81;5004458;28;19967;-75
2023/06/05 09:41:01;;;;;;;;;;;;;;;23.16;41.29;102230.22;5011775;28;19921;-76
2023/06/05 09:43:26;;;;;;;;;;;;;;;22.88;41.13;102226.97;4992681;28;19921;-75
2023/06/05 09:45:52;;;;;;;;;;;;;;;23.20;39.13;102227.69;4981438;28;19921;-75
2023/06/05 09:48:18;;;;;;;;;;;;;;;23.43;38.67;102226.41;4994431;28;20402;-76
2023/06/05 09:50:43;;;;;;;;;;;;;;;23.50;38.67;102219.66;5007822;28;20078;-77
2023/06/05 09:53:11;;;;;;;;;;;;;;;23.67;37.89;102233.38;4997011;28;20378;-77
2023/06/05 09:55:36;;;;;;;;;;;;;;;23.14;40.15;102220.75;5028416;28;19992;-76
2023/06/05 09:58:10;;;;;;;;;;;;;;;23.12;39.55;102215.63;5009710;28;20362;-78
2023/06/05 10:00:38;;;;;;;;;;;;;;;22.43;40.33;102223.56;5016489;28;19975;-78
2023/06/05 10:03:06;;;;;;;;;;;;;;;22.86;39.38;102214.75;4996474;28;20394;-75
2023/06/05 10:05:32;;;;;;;;;;;;;;;23.48;38.36;102219.19;5011569;28;19929;-76
2023/06/05 10:07:58;;;;;;;;;;;;;;;23.31;38.20;102220.78;5028115;28;19917;-76
2023/06/05 10:10:23;;;;;;;;;;;;;;;22.81;40.93;102212.94;5009573;28;19921;-76
2023/06/05 10:12:49;;;;;;;;;;;;;;;23.17;40.19;102209.22;5022356;28;19924;-76
2023/06/05 10:15:15;;;;;;;;;;;;;;;23.33;37.62;102212.25;5028070;28;19921;-75
2023/06/05 10:17:41;;;;;;;;;;;;;;;23.54;38.73;102199.56;5014066;28;20300;-76
2023/06/05 10:20:07;;;;;;;;;;;;;;;24.04;36.72;102201.75;5027960;28;20297;-77
2023/06/05 10:22:35;;;;;;;;;;;;;;;23.82;36.32;102202.78;4999394;28;20335;-75
2023/06/05 10:25:04;;;;;;;;;;;;;;;24.16;38.01;102210.09;5010668;28;19929;-76
2023/06/05 10:27:40;;;;;;;;;;;;;;;24.42;36.09;102201.03;4992211;28;20445;-75
2023/06/05 10:30:16;;;;;;;;;;;;;;;24.49;37.65;102201.34;5011865;28;19921;-77
2023/06/05 10:32:45;;;;;;;;;;;;;;;23.86;36.66;102201.00;5025512;28;20016;-76
2023/06/05 10:35:23;;;;;;;;;;;;;;;23.95;36.55;102196.31;4997027;28;20368;-77
2023/06/05 10:37:58;;;;;;;;;;;;;;;23.89;35.91;102194.09;5025472;28;19925;-76
2023/06/05 10:40:25;;;;;;;;;;;;;;;24.26;39.00;102189.81;5030415;28;19917;-76
2023/06/05 10:42:50;;;;;;;;;;;;;;;24.84;38.14;102192.94;5012416;28;20656;-77
2023/06/05 10:45:32;;;;;;;;;;;;;;;25.03;37.82;102176.84;4992008;28;19925;-76
2023/06/05 10:47:57;;;;;;;;;;;;;;;24.57;35.98;102184.06;5026425;28;19917;-76
2023/06/05 10:50:27;;;;;;;;;;;;;;;25.20;35.20;102176.78;4994357;28;19928;-76
2023/06/05 10:52:53;;;;;;;;;;;;;;;24.57;34.66;102184.06;5003973;28;20007;-75
2023/06/05 10:55:22;;;;;;;;;;;;;;;24.67;34.93;102180.16;5011319;28;19921;-76
2023/06/05 10:58:00;;;;;;;;;;;;;;;24.39;35.08;102182.53;5006367;28;19924;-76
2023/06/05 11:00:26;;;;;;;;;;;;;;;24.32;34.40;102166.59;5012932;28;20074;-76
2023/06/05 11:02:52;;;;;;;;;;;;;;;24.70;35.07;102172.06;5009124;28;20564;-75
2023/06/05 11:05:19;;;;;;;;;;;;;;;25.07;36.60;102185.25;5027914;28;19975;-75
2023/06/05 11:07:45;;;;;;;;;;;;;;;24.89;35.80;102174.38;4987017;28;19928;-76
2023/06/05 11:10:15;;;;;;;;;;;;;;;24.97;35.12;102165.28;5023757;28;19921;-76
2023/06/05 11:12:41;;;;;;;;;;;;;;;24.22;34.66;102165.00;5003528;28;19952;-76
2023/06/05 11:15:07;;;;;;;;;;;;;;;24.23;35.14;102168.56;5011924;28;19925;-76
2023/06/05 11:17:34;;;;;;;;;;;;;;;24.61;34.78;102163.09;4989312;28;20331;-75
2023/06/05 11:20:05;;;;;;;;;;;;;;;24.27;33.57;102157.75;5018144;28;19933;-77
2023/06/05 11:22:31;;;;;;;;;;;;;;;24.95;33.42;102159.34;5030029;28;20420;-76
2023/06/05 11:25:16;;;;;;;;;;;;;;;25.31;31.11;102158.75;5006396;28;19996;-77
2023/06/05 11:27:43;;;;;;;;;;;;;;;24.91;31.87;102155.66;4985697;28;19917;-76
2023/06/05 11:30:12;;;;;;;;;;;;;;;24.13;33.10;102153.31;4997105;28;19961;-77
2023/06/05 11:32:37;;;;;;;;;;;;;;;24.39;33.14;102149.69;4979424;28;19927;-76
2023/06/05 11:35:04;;;;;;;;;;;;;;;24.65;33.75;102146.78;5008958;28;19917;-77
2023/06/05 11:37:32;;;;;;;;;;;;;;;24.14;32.55;102138.47;4995443;28;19943;-78
2023/06/05 11:39:58;;;;;;;;;;;;;;;24.25;32.79;102133.47;5011801;28;19928;-77
2023/06/05 11:42:24;;;;;;;;;;;;;;;23.87;33.03;102138.91;4993832;28;19921;-77
2023/06/05 11:44:49;;;;;;;;;;;;;;;23.33;34.53;102138.47;5003832;28;19922;-78
2023/06/05 11:47:41;;;;;;;;;;;;;;;22.94;37.39;102142.94;5026206;28;19917;-78
2023/06/05 11:50:11;;;;;;;;;;;;;;;22.82;40.67;102140.00;5003791;28;19922;-78
2023/06/05 11:52:36;;;;;;;;;;;;;;;24.14;35.26;102130.28;5004914;28;19917;-76
2023/06/05 11:55:18;;;;;;;;;;;;;;;24.90;32.81;102132.13;4995050;28;20059;-79
2023/06/05 11:57:46;;;;;;;;;;;;;;;25.28;31.83;102139.44;5022706;28;19944;-75
2023/06/05 12:00:12;;;;;;;;;;;;;;;26.09;30.70;102129.75;5009312;28;19917;-76
2023/06/05 12:02:38;;;;;;;;;;;;;;;26.62;32.17;102116.94;4989113;28;19921;-78
2023/06/05 12:05:05;;;;;;;;;;;;;;;27.44;28.36;102113.84;5010560;28;20389;-77
2023/06/05 12:07:36;;;;;;;;;;;;;;;27.66;32.01;102113.25;4988135;28;19921;-77
2023/06/05 12:10:03;;;;;;;;;;;;;;;28.05;29.35;102120.97;5009247;28;19921;-76
2023/06/05 12:12:54;;;;;;;;;;;;;;;27.52;27.58;102109.34;4979697;28;19921;-77
2023/06/05 12:15:20;;;;;;;;;;;;;;;27.40;28.17;102116.50;5024335;28;19985;-78
2023/06/05 12:17:53;;;;;;;;;;;;;;;27.51;29.01;102114.03;5006731;28;19917;-76
2023/06/05 12:20:20;;;;;;;;;;;;;;;27.49;27.87;102106.13;5018630;28;19917;-77
2023/06/05 12:22:49;;;;;;;;;;;;;;;27.65;28.47;102108.91;5012392;28;19917;-76
2023/06/05 12:25:18;;;;;;;;;;;;;;;28.01;27.74;102104.34;5012974;28;19963;-77
2023/06/05 12:27:47;;;;;;;;;;;;;;;26.73;29.08;102112.56;4984842;28;20384;-77
2023/06/05 12:30:13;;;;;;;;;;;;;;;27.40;29.18;102108.25;4984946;28;20020;-76
2023/06/05 12:32:39;;;;;;;;;;;;;;;27.31;30.55;102107.63;5009669;28;20012;-77
2023/06/05 12:35:05;;;;;;;;;;;;;;;27.58;28.40;102102.44;5016817;28;20530;-78
2023/06/05 12:37:34;;;;;;;;;;;;;;;27.89;28.99;102105.22;5012399;28;19921;-77
2023/06/05 12:40:00;;;;;;;;;;;;;;;28.55;30.40;102101.72;5003004;28;19924;-77
2023/06/05 12:42:26;;;;;;;;;;;;;;;29.47;25.25;102104.81;4989616;28;19921;-77